Time;durP1;ratioP1;P1;durP2;ratioP2;P2;SDS_P1;SDS_P2;PMS_P1;PMS_P2;Temp;Humidity;BMP_temperature;BMP_pressure;BME280_temperature;BME280_humidity;BME280_pressure;Samples;Min_cycle;Max_cycle;Signal;HPM_P1;HPM_P2
2022/10/18 00:01:56;;;;;;;1.20;1.10;;;14.70;98.00;;;;;;5034210;28;20333;-72
2022/10/18 00:04:31;;;;;;;1.17;1.10;;;14.60;98.00;;;;;;5018751;28;20307;-72
2022/10/18 00:06:57;;;;;;;1.97;1.03;;;14.60;98.00;;;;;;5001274;28;20026;-72
2022/10/18 00:09:32;;;;;;;2.00;1.33;;;14.50;98.00;;;;;;5034048;28;20556;-72
2022/10/18 00:12:07;;;;;;;1.27;1.13;;;14.60;98.00;;;;;;5017636;28;20022;-72
2022/10/18 00:14:42;;;;;;;2.30;1.83;;;14.60;98.00;;;;;;5017322;28;20344;-72
2022/10/18 00:17:08;;;;;;;4.03;2.20;;;14.70;98.00;;;;;;5018435;28;20030;-72
2022/10/18 00:19:49;;;;;;;1.90;1.30;;;14.70;98.00;;;;;;5018786;28;20025;-72
2022/10/18 00:22:24;;;;;;;1.20;1.10;;;14.70;98.00;;;;;;5018372;28;20026;-72
2022/10/18 00:24:59;;;;;;;1.10;0.95;;;14.80;98.00;;;;;;5017360;28;20428;-72
2022/10/18 00:27:26;;;;;;;8.15;2.00;;;14.70;98.00;;;;;;5018147;28;20018;-72
2022/10/18 00:30:07;;;;;;;1.30;1.20;;;14.60;98.00;;;;;;5018254;28;20025;-72
2022/10/18 00:32:45;;;;;;;1.50;1.27;;;14.60;98.00;;;;;;5018305;28;20021;-72
2022/10/18 00:38:33;;;;;;;1.67;1.45;;;14.60;98.00;;;;;;5018449;28;20081;-72
2022/10/18 00:41:19;;;;;;;2.85;1.88;;;14.50;98.00;;;;;;5018057;28;20026;-72
2022/10/18 00:44:03;;;;;;;2.22;2.03;;;14.50;98.00;;;;;;5018082;28;20429;-72
2022/10/18 00:47:02;;;;;;;1.63;0.93;;;14.50;98.00;;;;;;5037208;28;21056;-72
2022/10/18 00:49:42;;;;;;;0.70;0.70;;;14.60;98.00;;;;;;5037213;28;20472;-72
2022/10/18 00:52:58;;;;;;;2.83;2.58;;;14.60;98.00;;;;;;5020064;28;20017;-72
2022/10/18 00:55:36;;;;;;;0.25;0.25;;;14.60;98.00;;;;;;5037445;28;20017;-72
2022/10/18 00:58:02;;;;;;;1.27;1.17;;;14.60;98.00;;;;;;5037505;28;20309;-72
2022/10/18 01:00:41;;;;;;;1.17;0.82;;;14.50;98.00;;;;;;5037600;28;20029;-72
2022/10/18 01:03:15;;;;;;;1.50;1.15;;;14.50;98.00;;;;;;5036415;28;20105;-72
2022/10/18 01:05:53;;;;;;;1.03;0.90;;;14.50;98.00;;;;;;5037283;28;20020;-72
2022/10/18 01:08:39;;;;;;;1.23;1.13;;;14.50;98.00;;;;;;5036332;28;20036;-72
2022/10/18 01:11:54;;;;;;;0.82;0.73;;;14.50;98.00;;;;;;5037267;28;20440;-72
2022/10/18 01:18:28;;;;;;;1.48;1.27;;;14.40;98.00;;;;;;5037438;28;20068;-72
2022/10/18 01:21:20;;;;;;;1.20;1.08;;;14.40;98.00;;;;;;5037028;28;20033;-72
2022/10/18 01:24:08;;;;;;;1.05;0.95;;;14.40;98.00;;;;;;5036990;28;20009;-72
2022/10/18 01:27:23;;;;;;;10.63;2.22;;;14.40;98.00;;;;;;5037096;28;20105;-72
2022/10/18 01:30:34;;;;;;;1.17;1.08;;;14.50;98.00;;;;;;5036944;28;20021;-72
2022/10/18 01:33:27;;;;;;;1.40;0.98;;;14.50;98.00;;;;;;5036889;28;20025;-72
2022/10/18 01:36:32;;;;;;;3.03;2.35;;;14.50;98.00;;;;;;5036617;28;20013;-72
2022/10/18 01:39:11;;;;;;;1.42;1.33;;;14.50;98.00;;;;;;5036569;28;20116;-72
2022/10/18 01:41:48;;;;;;;1.15;0.73;;;14.50;98.00;;;;;;5036635;28;20104;-72
2022/10/18 01:44:19;;;;;;;1.25;1.15;;;14.50;98.00;;;;;;5051960;28;20026;-72
2022/10/18 01:46:46;;;;;;;1.45;1.25;;;14.40;98.00;;;;;;5015772;28;20121;-72
2022/10/18 01:49:23;;;;;;;0.82;0.60;;;14.50;98.00;;;;;;5016837;28;20406;-72
2022/10/18 01:51:58;;;;;;;0.93;0.77;;;14.50;98.00;;;;;;5016705;28;20053;-72
2022/10/18 01:57:58;;;;;;;1.50;1.40;;;14.60;98.00;;;;;;5017217;28;20021;-72
2022/10/18 02:01:05;;;;;;;1.00;0.95;;;14.60;98.00;;;;;;5016715;28;20025;-72
2022/10/18 02:03:45;;;;;;;1.98;1.65;;;14.60;98.00;;;;;;5011184;28;20325;-72
2022/10/18 02:09:41;;;;;;;1.63;1.20;;;14.60;98.00;;;;;;5016641;28;20036;-72
2022/10/18 02:12:17;;;;;;;1.20;1.10;;;14.50;98.00;;;;;;5016561;28;20033;-72
2022/10/18 02:14:53;;;;;;;3.42;1.35;;;14.50;98.00;;;;;;4999137;28;20399;-72
2022/10/18 02:17:20;;;;;;;2.22;1.70;;;14.50;98.00;;;;;;5016677;28;20029;-72
2022/10/18 02:19:57;;;;;;;2.25;1.10;;;14.40;98.00;;;;;;5015393;28;20029;-72
2022/10/18 02:22:38;;;;;;;1.35;1.25;;;14.40;98.00;;;;;;5016566;28;20026;-72
2022/10/18 02:25:27;;;;;;;1.13;0.88;;;14.40;98.00;;;;;;5016548;28;20022;-72
2022/10/18 02:27:54;;;;;;;0.70;0.70;;;14.30;98.00;;;;;;5003066;28;20030;-72
2022/10/18 02:31:13;;;;;;;0.98;0.88;;;14.30;98.00;;;;;;5019205;28;20476;-72
2022/10/18 02:34:17;;;;;;;1.02;0.95;;;14.30;98.00;;;;;;5020454;28;20022;-72
2022/10/18 02:37:14;;;;;;;2.38;1.15;;;14.30;98.00;;;;;;5035689;28;20357;-72
2022/10/18 02:39:50;;;;;;;3.17;2.38;;;14.30;98.00;;;;;;5020271;28;20310;-72
2022/10/18 02:42:31;;;;;;;0.88;0.80;;;14.30;98.00;;;;;;5002888;28;20022;-72
2022/10/18 02:52:10;;;;;;;2.20;1.75;;;14.30;98.00;;;;;;5039947;28;19912;-72
2022/10/18 02:54:45;;;;;;;1.42;1.33;;;14.40;98.00;;;;;;5039759;28;20420;-72
2022/10/18 02:57:11;;;;;;;1.27;1.17;;;14.40;98.00;;;;;;5038553;28;20128;-72
2022/10/18 02:59:55;;;;;;;0.95;0.57;;;14.40;98.00;;;;;;5039696;28;20708;-72
2022/10/18 03:02:29;;;;;;;1.77;1.65;;;14.40;98.00;;;;;;5039701;28;20025;-72
2022/10/18 03:05:04;;;;;;;2.47;1.95;;;14.50;98.00;;;;;;5038661;28;20116;-72
2022/10/18 03:07:30;;;;;;;1.03;0.80;;;14.60;97.80;;;;;;5039639;28;20022;-72
2022/10/18 03:10:14;;;;;;;1.63;1.33;;;14.60;97.40;;;;;;5055185;28;20034;-72
2022/10/18 03:12:49;;;;;;;0.70;0.70;;;14.60;97.60;;;;;;5038406;28;20026;-72
2022/10/18 03:15:27;;;;;;;0.47;0.40;;;14.60;97.60;;;;;;5055204;28;20022;-72
2022/10/18 03:17:53;;;;;;;2.20;0.95;;;14.50;97.60;;;;;;5039510;28;20029;-72
2022/10/18 03:20:37;;;;;;;1.35;1.23;;;14.50;97.80;;;;;;5055028;28;20365;-72
2022/10/18 03:23:12;;;;;;;1.17;0.85;;;14.40;98.00;;;;;;5021603;28;20112;-72
2022/10/18 03:29:12;;;;;;;2.00;1.80;;;14.30;98.00;;;;;;5039412;28;20368;-72
2022/10/18 03:31:47;;;;;;;0.98;0.93;;;14.30;98.00;;;;;;5039033;28;20025;-72
2022/10/18 03:37:35;;;;;;;2.17;1.20;;;14.30;98.00;;;;;;5038890;28;20027;-72
2022/10/18 03:40:10;;;;;;;1.58;1.17;;;14.40;97.50;;;;;;5039031;28;20032;-72
2022/10/18 03:42:45;;;;;;;1.23;1.08;;;14.50;97.10;;;;;;5037914;28;20068;-72
2022/10/18 03:45:20;;;;;;;1.85;1.27;;;14.60;96.80;;;;;;5037969;28;20025;-72
2022/10/18 03:47:46;;;;;;;1.95;0.90;;;14.70;97.10;;;;;;5038747;28;20314;-72
2022/10/18 03:50:20;;;;;;;0.95;0.90;;;14.60;97.60;;;;;;5038823;28;20033;-72
2022/10/18 03:52:55;;;;;;;1.25;1.08;;;14.50;97.60;;;;;;5038851;28;20433;-72
2022/10/18 03:55:30;;;;;;;1.77;1.30;;;14.50;97.90;;;;;;5038870;28;20040;-72
2022/10/18 03:57:56;;;;;;;1.90;1.50;;;14.40;98.00;;;;;;5037601;28;20057;-72
2022/10/18 04:03:53;;;;;;;0.63;0.63;;;14.20;98.00;;;;;;5038672;28;20075;-72
2022/10/18 04:09:41;;;;;;;0.80;0.80;;;14.00;98.00;;;;;;5038524;28;20117;-72
2022/10/18 04:12:15;;;;;;;1.48;1.38;;;14.00;98.00;;;;;;5053937;28;20042;-72
2022/10/18 04:18:15;;;;;;;0.73;0.73;;;14.00;98.00;;;;;;5038533;28;20407;-72
2022/10/18 04:20:50;;;;;;;1.23;1.02;;;14.00;98.00;;;;;;5037133;28;20477;-72
2022/10/18 04:23:28;;;;;;;1.85;1.10;;;13.90;98.00;;;;;;5038333;28;20103;-72
2022/10/18 04:26:03;;;;;;;1.52;1.35;;;13.90;98.00;;;;;;5020409;28;20309;-72
2022/10/18 04:28:28;;;;;;;3.03;1.73;;;13.90;98.00;;;;;;5038128;28;20111;-72
2022/10/18 04:31:12;;;;;;;0.90;0.85;;;13.90;98.00;;;;;;5053629;28;20091;-72
2022/10/18 04:33:47;;;;;;;1.33;1.05;;;13.90;98.00;;;;;;5037074;28;20470;-72
2022/10/18 04:36:22;;;;;;;1.93;1.40;;;14.00;98.00;;;;;;5037850;28;20017;-72
2022/10/18 04:38:57;;;;;;;2.92;0.98;;;14.10;98.00;;;;;;5020343;28;20413;-72
2022/10/18 04:41:31;;;;;;;0.93;0.82;;;14.20;98.00;;;;;;5037917;28;20026;-72
2022/10/18 04:44:06;;;;;;;0.93;0.75;;;14.20;98.00;;;;;;5037760;28;20021;-72
2022/10/18 04:50:09;;;;;;;0.70;0.65;;;14.00;98.00;;;;;;5035805;28;20128;-72
2022/10/18 04:52:44;;;;;;;1.27;0.55;;;13.90;98.00;;;;;;5035567;28;20022;-72
2022/10/18 04:58:32;;;;;;;0.80;0.73;;;14.00;98.00;;;;;;5036939;28;20413;-72
2022/10/18 05:01:07;;;;;;;0.98;0.52;;;14.10;98.00;;;;;;5036638;28;20018;-72
2022/10/18 05:03:42;;;;;;;2.42;1.05;;;14.10;97.90;;;;;;5036663;28;20025;-72
2022/10/18 05:06:16;;;;;;;0.63;0.63;;;14.10;97.60;;;;;;5036546;28;20033;-72
2022/10/18 05:08:42;;;;;;;1.27;1.05;;;14.00;97.90;;;;;;5036863;28;20275;-72
2022/10/18 05:11:17;;;;;;;1.17;0.90;;;14.00;98.00;;;;;;5036472;28;20021;-72
2022/10/18 05:13:52;;;;;;;1.30;1.00;;;14.00;98.00;;;;;;5036406;28;20060;-72
2022/10/18 05:16:27;;;;;;;0.28;0.28;;;14.00;98.00;;;;;;5035345;28;20089;-72
2022/10/18 05:19:04;;;;;;;1.33;1.00;;;14.00;98.00;;;;;;5036589;28;20030;-72
2022/10/18 05:21:39;;;;;;;1.02;0.95;;;13.90;98.00;;;;;;5036308;28;20030;-72
2022/10/18 05:24:15;;;;;;;0.52;0.52;;;13.90;98.00;;;;;;5036391;28;20029;-72
2022/10/18 05:26:41;;;;;;;1.27;1.17;;;13.90;98.00;;;;;;5036245;28;20032;-72
2022/10/18 05:29:19;;;;;;;0.85;0.63;;;13.90;98.00;;;;;;5018440;28;20029;-72
2022/10/18 05:31:53;;;;;;;10.40;1.05;;;13.90;98.00;;;;;;5036045;28;20060;-72
2022/10/18 05:37:41;;;;;;;1.05;0.95;;;13.80;98.00;;;;;;5036254;28;20459;-72
2022/10/18 05:40:15;;;;;;;1.33;1.23;;;13.80;98.00;;;;;;5035928;28;20025;-72
2022/10/18 05:43:02;;;;;;;1.88;1.55;;;13.80;98.00;;;;;;5036054;28;20020;-72
2022/10/18 05:45:49;;;;;;;0.80;0.80;;;13.90;98.00;;;;;;5036012;28;20044;-72
2022/10/18 05:52:20;;;;;;;0.93;0.75;;;13.90;98.00;;;;;;5036891;28;20060;-72
2022/10/18 05:54:55;;;;;;;1.08;0.88;;;14.10;98.00;;;;;;5052125;28;20021;-72
2022/10/18 05:57:21;;;;;;;1.83;0.95;;;14.10;98.00;;;;;;5036681;28;20119;-72
2022/10/18 05:59:56;;;;;;;1.75;1.65;;;14.10;98.00;;;;;;5018794;28;20060;-72
2022/10/18 06:02:31;;;;;;;0.77;0.70;;;14.20;98.00;;;;;;5036552;28;20100;-72
2022/10/18 06:08:18;;;;;;;1.23;1.10;;;14.50;98.00;;;;;;5036323;28;20698;-72
2022/10/18 06:11:11;;;;;;;0.85;0.68;;;14.60;98.00;;;;;;5035367;28;20037;-72
2022/10/18 06:13:51;;;;;;;0.55;0.55;;;14.80;97.60;;;;;;5036330;28;20021;-72
2022/10/18 06:19:38;;;;;;;0.57;0.50;;;15.10;96.80;;;;;;5036447;28;20042;-72
2022/10/18 06:22:13;;;;;;;0.38;0.38;;;15.20;97.00;;;;;;5051876;28;20021;-72
2022/10/18 06:28:04;;;;;;;1.13;0.80;;;15.50;98.00;;;;;;5036559;28;20017;-72
2022/10/18 06:30:39;;;;;;;1.58;1.23;;;15.60;98.00;;;;;;5036261;28;20105;-72
2022/10/18 06:33:14;;;;;;;3.20;1.13;;;15.60;97.90;;;;;;5036194;28;20033;-72
2022/10/18 06:36:27;;;;;;;2.90;1.73;;;15.70;97.10;;;;;;5036166;28;20284;-72
2022/10/18 06:39:02;;;;;;;0.85;0.65;;;15.80;97.40;;;;;;5035861;28;20037;-72
2022/10/18 06:41:37;;;;;;;1.38;0.85;;;15.90;96.80;;;;;;5036164;28;20026;-72
2022/10/18 06:44:14;;;;;;;2.28;1.40;;;16.00;96.10;;;;;;5035096;28;20026;-72
2022/10/18 06:46:40;;;;;;;0.50;0.50;;;16.10;95.40;;;;;;5051560;28;20056;-72
2022/10/18 06:50:14;;;;;;;1.40;1.27;;;16.10;95.20;;;;;;5035756;28;20041;-72
2022/10/18 06:53:38;;;;;;;0.70;0.65;;;16.20;93.30;;;;;;5036033;28;20025;-72
2022/10/18 06:59:39;;;;;;;1.13;0.93;;;16.40;92.70;;;;;;5036258;28;20040;-72
2022/10/18 07:02:17;;;;;;;1.10;0.90;;;16.50;92.00;;;;;;5034925;28;20318;-72
2022/10/18 07:08:04;;;;;;;1.38;1.23;;;16.60;92.80;;;;;;5036278;28;20048;-72
2022/10/18 07:10:39;;;;;;;2.25;1.75;;;16.70;92.10;;;;;;5051497;28;20025;-72
2022/10/18 07:13:14;;;;;;;1.40;1.20;;;16.70;93.00;;;;;;5037385;28;20022;-72
2022/10/18 07:16:13;;;;;;;2.22;1.02;;;16.80;94.70;;;;;;5038414;28;20049;-72
2022/10/18 07:18:44;;;;;;;1.50;1.27;;;16.80;93.40;;;;;;5039370;28;20096;-72
2022/10/18 07:21:22;;;;;;;1.38;1.17;;;16.90;94.80;;;;;;5039286;28;20021;-72
2022/10/18 07:23:57;;;;;;;3.17;2.08;;;16.90;95.90;;;;;;5039310;28;20037;-72
2022/10/18 07:26:24;;;;;;;1.90;1.02;;;16.90;93.30;;;;;;5039080;28;20044;-72
2022/10/18 07:29:28;;;;;;;1.65;1.27;;;17.00;93.70;;;;;;5054763;28;20084;-72
2022/10/18 07:32:04;;;;;;;4.55;2.22;;;17.10;93.00;;;;;;5038827;28;20021;-72
2022/10/18 07:37:52;;;;;;;1.63;1.48;;;17.20;91.70;;;;;;5039481;28;20028;-72
2022/10/18 07:40:36;;;;;;;1.20;0.73;;;17.30;91.90;;;;;;5038976;28;20033;-72
2022/10/18 07:43:10;;;;;;;0.82;0.75;;;17.30;91.60;;;;;;5038921;28;20099;-72
2022/10/18 07:49:13;;;;;;;1.30;1.10;;;17.20;92.00;;;;;;5030556;28;20041;-72
2022/10/18 07:51:48;;;;;;;0.98;0.82;;;17.20;93.90;;;;;;5017967;28;20026;-72
2022/10/18 07:54:23;;;;;;;1.65;0.95;;;17.30;92.00;;;;;;5018965;28;20026;-72
2022/10/18 07:56:49;;;;;;;0.82;0.75;;;17.50;92.40;;;;;;5019006;28;20022;-72
2022/10/18 07:59:33;;;;;;;1.70;1.25;;;17.60;92.60;;;;;;5017801;28;20037;-72
2022/10/18 08:02:08;;;;;;;1.33;1.23;;;17.60;93.50;;;;;;5018781;28;20464;-72
2022/10/18 08:04:43;;;;;;;2.33;1.43;;;17.70;94.00;;;;;;5001580;28;20036;-70
2022/10/18 08:07:09;;;;;;;2.30;1.17;;;17.70;93.10;;;;;;5018807;28;20026;-70
2022/10/18 08:09:53;;;;;;;5.47;1.70;;;17.80;92.20;;;;;;5018680;28;20307;-70
2022/10/18 08:12:28;;;;;;;3.25;1.73;;;17.80;94.10;;;;;;5018668;28;20026;-72
2022/10/18 08:18:28;;;;;;;1.73;1.40;;;18.00;94.50;;;;;;5019076;28;20148;-71
2022/10/18 08:21:05;;;;;;;4.78;1.50;;;18.00;94.40;;;;;;5018614;28;20021;-71
2022/10/18 08:23:41;;;;;;;1.67;1.20;;;18.20;94.40;;;;;;5017235;28;20038;-71
2022/10/18 08:29:28;;;;;;;1.55;1.17;;;18.60;92.90;;;;;;5018450;28;20056;-72
2022/10/18 08:32:13;;;;;;;1.65;1.48;;;18.80;92.60;;;;;;5018367;28;20026;-72
2022/10/18 08:38:01;;;;;;;2.45;1.85;;;19.20;90.80;;;;;;5018574;28;20103;-70
2022/10/18 08:40:50;;;;;;;3.15;2.40;;;20.00;89.40;;;;;;5018067;28;20018;-70
2022/10/18 08:43:52;;;;;;;1.27;1.13;;;20.80;87.80;;;;;;5018196;28;20030;-71
2022/10/18 08:46:27;;;;;;;3.50;1.67;;;21.50;85.40;;;;;;5017934;28;20026;-71
2022/10/18 08:49:52;;;;;;;2.70;2.40;;;21.70;85.60;;;;;;5023602;28;20077;-71
2022/10/18 08:53:18;;;;;;;2.58;1.90;;;21.50;85.40;;;;;;5037677;28;20028;-70
2022/10/18 09:00:17;;;;;;;2.85;1.80;;;21.90;86.00;;;;;;5037912;28;20036;-70
2022/10/18 09:03:42;;;;;;;2.10;1.88;;;22.50;85.00;;;;;;5037518;28;20056;-70
2022/10/18 09:10:44;;;;;;;3.13;1.77;;;24.00;79.60;;;;;;5037472;28;20037;-71
2022/10/18 09:14:09;;;;;;;2.42;2.05;;;24.50;76.40;;;;;;5037322;28;20021;-70
2022/10/18 09:17:34;;;;;;;3.78;2.78;;;24.60;76.50;;;;;;5037361;28;20108;-71
2022/10/18 09:20:59;;;;;;;3.10;1.70;;;24.90;74.50;;;;;;5037535;28;20036;-71
2022/10/18 09:24:26;;;;;;;1.70;1.40;;;25.00;73.90;;;;;;5037188;28;20029;-71
2022/10/18 09:27:00;;;;;;;7.60;2.03;;;24.90;73.60;;;;;;5037100;28;20060;-71
2022/10/18 09:30:07;;;;;;;2.35;2.08;;;25.00;73.50;;;;;;5036890;28;20029;-71
2022/10/18 09:39:29;;;;;;;2.50;1.70;;;25.30;73.00;;;;;;5037163;28;20080;-71
2022/10/18 09:42:33;;;;;;;2.55;1.33;;;25.30;72.20;;;;;;5036717;28;20027;-71
2022/10/18 09:48:59;;;;;;;2.58;1.77;;;25.50;73.00;;;;;;5036569;28;20024;-71
2022/10/18 09:51:37;;;;;;;2.35;1.73;;;25.80;73.50;;;;;;5036760;28;20017;-71
2022/10/18 09:54:31;;;;;;;1.40;1.23;;;26.20;72.30;;;;;;5035508;28;20021;-71
2022/10/18 09:57:32;;;;;;;2.27;1.80;;;26.30;72.80;;;;;;5036670;28;20022;-71
2022/10/18 10:00:40;;;;;;;2.53;1.58;;;26.30;72.30;;;;;;5036643;28;20100;-71
2022/10/18 10:03:29;;;;;;;2.30;2.10;;;26.40;72.20;;;;;;5036083;28;20076;-71
2022/10/18 10:06:37;;;;;;;2.30;1.15;;;26.30;71.30;;;;;;5036377;28;20048;-71
2022/10/18 10:09:16;;;;;;;4.35;1.10;;;26.30;70.30;;;;;;5036244;28;20037;-71
2022/10/18 10:12:34;;;;;;;2.35;1.33;;;26.10;70.20;;;;;;5036442;28;20025;-71
2022/10/18 10:18:35;;;;;;;1.73;1.52;;;26.00;70.90;;;;;;5036641;28;20076;-72
2022/10/18 10:21:15;;;;;;;1.63;1.27;;;26.00;71.00;;;;;;5036424;28;20052;-71
2022/10/18 10:23:57;;;;;;;2.55;1.63;;;26.10;70.60;;;;;;5036282;28;20314;-71
2022/10/18 10:29:56;;;;;;;1.85;1.02;;;26.10;69.00;;;;;;5036257;28;20150;-70
2022/10/18 10:32:51;;;;;;;2.17;1.58;;;26.30;71.20;;;;;;5036249;28;20100;-72
2022/10/18 10:38:39;;;;;;;3.47;2.00;;;25.90;69.90;;;;;;5036529;28;20035;-72
2022/10/18 10:41:23;;;;;;;3.38;2.17;;;25.90;71.60;;;;;;5051726;28;20306;-72
2022/10/18 10:44:02;;;;;;;3.08;1.70;;;25.80;70.40;;;;;;5035039;28;20022;-71
2022/10/18 10:46:37;;;;;;;2.53;1.60;;;25.80;71.10;;;;;;5036607;28;20406;-72
2022/10/18 10:49:22;;;;;;;2.40;1.40;;;25.80;71.90;;;;;;5039593;28;20048;-72
2022/10/18 10:52:15;;;;;;;2.17;1.67;;;25.80;70.00;;;;;;5039905;28;20103;-72
2022/10/18 10:54:50;;;;;;;3.13;1.95;;;25.70;71.20;;;;;;5039755;28;20020;-72
2022/10/18 10:57:21;;;;;;;;;;;25.70;72.30;;;;;;5040343;28;20422;-72
2022/10/18 10:59:58;;;;;;;2.30;1.73;;;25.60;70.80;;;;;;5039810;28;19905;-72
2022/10/18 11:02:52;;;;;;;2.58;2.00;;;25.80;72.30;;;;;;5039754;28;20025;-71
2022/10/18 11:08:42;;;;;;;2.50;1.90;;;26.00;71.60;;;;;;5039692;28;20036;-72
2022/10/18 11:11:38;;;;;;;3.35;1.90;;;25.90;70.30;;;;;;5055276;28;20092;-72
2022/10/18 11:17:40;;;;;;;1.98;1.38;;;25.80;73.20;;;;;;5039763;28;20028;-72
2022/10/18 11:20:37;;;;;;;2.90;1.98;;;25.70;72.50;;;;;;5038300;28;20135;-72
2022/10/18 11:23:16;;;;;;;3.03;2.00;;;25.50;71.50;;;;;;5039426;28;20279;-72
2022/10/18 11:29:16;;;;;;;3.75;1.90;;;25.50;74.60;;;;;;5039343;28;20068;-72
2022/10/18 11:32:22;;;;;;;4.40;1.77;;;25.50;72.40;;;;;;5039242;28;20055;-72
2022/10/18 11:35:21;;;;;;;2.45;1.80;;;25.10;73.10;;;;;;5039132;28;20022;-72
2022/10/18 11:38:42;;;;;;;2.30;1.55;;;25.10;73.20;;;;;;5039097;28;20421;-72
2022/10/18 11:41:48;;;;;;;2.40;2.05;;;25.10;74.60;;;;;;4942794;29;20019;-72
2022/10/18 11:47:46;;;;;;;1.60;1.20;;;25.10;73.80;;;;;;4959390;29;20405;-71
2022/10/18 11:51:10;;;;;;;4.05;2.35;;;24.90;75.30;;;;;;4958388;28;20051;-72
2022/10/18 11:58:08;;;;;;;3.00;2.10;;;24.90;75.60;;;;;;4991289;28;20052;-72
2022/10/18 12:01:33;;;;;;;3.17;1.90;;;24.60;74.30;;;;;;5039178;28;20428;-72
2022/10/18 12:07:41;;;;;;;3.13;1.77;;;24.10;75.90;;;;;;5038677;28;20032;-71
2022/10/18 12:10:18;;;;;;;1.80;1.20;;;23.90;76.50;;;;;;5037433;28;20036;-72
2022/10/18 12:13:12;;;;;;;3.80;2.53;;;23.60;76.30;;;;;;5038516;28;20040;-72
2022/10/18 12:19:12;;;;;;;3.53;2.10;;;23.60;80.50;;;;;;5038954;28;20036;-72
2022/10/18 12:21:47;;;;;;;3.08;2.33;;;23.60;81.00;;;;;;5038338;28;20028;-72
2022/10/18 12:24:27;;;;;;;;;;;23.60;80.50;;;;;;5020943;28;20029;-72
2022/10/18 12:27:00;;;;;;;4.13;2.75;;;23.40;78.80;;;;;;5038289;28;19901;-72
2022/10/18 12:29:57;;;;;;;2.78;1.80;;;23.20;80.00;;;;;;5038094;28;20032;-71
2022/10/18 12:32:36;;;;;;;4.15;2.85;;;23.20;77.40;;;;;;5038127;28;20025;-72
2022/10/18 12:39:07;;;;;;;2.95;2.35;;;22.90;83.00;;;;;;5038331;28;20032;-72
2022/10/18 12:41:47;;;;;;;2.97;2.08;;;22.90;80.50;;;;;;5036110;28;20033;-71
2022/10/18 12:47:35;;;;;;;5.18;3.08;;;22.70;81.30;;;;;;5036186;28;20020;-71
2022/10/18 12:50:40;;;;;;;2.10;1.63;;;22.60;78.90;;;;;;5018358;28;20564;-71
2022/10/18 12:54:05;;;;;;;2.40;1.50;;;22.50;83.20;;;;;;4980038;28;20042;-72
2022/10/18 12:57:29;;;;;;;1.95;1.75;;;22.50;85.30;;;;;;4977112;28;20046;-71
2022/10/18 13:00:42;;;;;;;2.72;2.33;;;22.40;82.80;;;;;;4976888;28;20026;-71
2022/10/18 13:03:17;;;;;;;2.15;1.95;;;22.40;81.80;;;;;;4964986;28;20035;-71
2022/10/18 13:10:02;;;;;;;7.03;4.57;;;22.10;84.60;;;;;;4983705;28;20475;-71
2022/10/18 13:13:27;;;;;;;2.20;1.95;;;21.90;83.90;;;;;;5037339;28;20036;-71
2022/10/18 13:19:56;;;;;;;3.22;1.70;;;21.80;84.90;;;;;;5037695;28;20232;-71
2022/10/18 13:22:59;;;;;;;4.50;2.47;;;21.70;84.30;;;;;;5019610;28;20080;-71
2022/10/18 13:29:06;;;;;;;3.45;2.17;;;21.50;84.70;;;;;;5037266;28;20405;-71
2022/10/18 13:32:01;;;;;;;4.47;3.33;;;21.40;83.90;;;;;;5037164;28;20393;-71
2022/10/18 13:37:59;;;;;;;1.98;1.77;;;21.40;86.70;;;;;;5037333;28;20027;-71
2022/10/18 13:40:33;;;;;;;;;;;21.40;85.30;;;;;;5037311;28;20048;-71
2022/10/18 13:43:48;;;;;;;1.90;1.48;;;21.30;84.30;;;;;;5036799;28;20349;-71
2022/10/18 13:50:07;;;;;;;2.33;1.98;;;21.20;86.50;;;;;;5035519;28;20091;-71
2022/10/18 13:53:28;;;;;;;1.88;1.40;;;21.20;86.90;;;;;;5036337;28;20045;-72
2022/10/18 13:59:38;;;;;;;3.70;2.75;;;21.20;86.30;;;;;;5036938;28;20079;-73
2022/10/18 14:06:22;;;;;;;5.13;2.13;;;21.10;86.40;;;;;;5036885;28;20032;-73
2022/10/18 14:09:26;;;;;;;3.72;2.05;;;21.00;86.50;;;;;;5036462;28;20100;-72
2022/10/18 14:12:34;;;;;;;2.05;1.77;;;21.00;87.60;;;;;;5036328;28;20018;-73
2022/10/18 14:18:34;;;;;;;2.47;2.00;;;20.80;86.10;;;;;;5036622;28;20072;-73
2022/10/18 14:21:29;;;;;;;3.10;2.67;;;20.70;87.20;;;;;;5037389;28;20021;-73
2022/10/18 14:27:57;;;;;;;5.22;2.30;;;20.60;88.40;;;;;;4999273;28;20037;-72
2022/10/18 14:30:31;;;;;;;4.10;2.58;;;20.60;87.60;;;;;;5001979;28;20030;-73
2022/10/18 14:33:36;;;;;;;3.85;2.88;;;20.50;88.80;;;;;;5039934;28;20467;-72
2022/10/18 14:39:36;;;;;;;3.75;2.60;;;20.40;88.40;;;;;;5040533;28;20494;-72
2022/10/18 14:42:19;;;;;;;3.83;2.72;;;20.40;87.60;;;;;;5058941;28;20033;-73
2022/10/18 14:48:12;;;;;;;4.80;2.92;;;20.20;88.80;;;;;;5060124;28;20078;-72
2022/10/18 14:50:47;;;;;;;3.30;3.00;;;20.20;88.70;;;;;;5059277;28;20028;-73
2022/10/18 14:53:23;;;;;;;;;;;20.10;89.10;;;;;;5020672;28;20034;-73
2022/10/18 14:59:33;;;;;;;3.53;2.67;;;20.00;90.10;;;;;;5020352;28;20060;-73
2022/10/18 15:02:22;;;;;;;2.85;2.47;;;19.90;90.30;;;;;;5020035;28;20335;-72
2022/10/18 15:08:10;;;;;;;3.58;2.75;;;19.90;88.80;;;;;;5020320;28;20056;-72
2022/10/18 15:10:45;;;;;;;3.40;2.90;;;19.90;89.40;;;;;;5035364;28;20057;-73
2022/10/18 15:13:20;;;;;;;3.78;2.47;;;19.80;89.80;;;;;;5019804;28;20018;-72
2022/10/18 15:19:14;;;;;;;3.20;2.55;;;19.70;89.90;;;;;;5020145;28;20260;-73
2022/10/18 15:22:01;;;;;;;2.28;2.08;;;19.60;91.20;;;;;;5019688;28;20049;-72
2022/10/18 15:27:54;;;;;;;2.05;1.50;;;19.40;92.60;;;;;;5019626;28;20338;-72
2022/10/18 15:31:19;;;;;;;1.77;1.67;;;19.30;93.90;;;;;;5018416;28;20029;-71
2022/10/18 15:34:26;;;;;;;1.85;1.25;;;19.20;94.20;;;;;;4977981;28;20035;-71
2022/10/18 15:36:55;;;;;;;3.58;3.28;;;19.10;95.00;;;;;;4978593;28;20122;-70
2022/10/18 15:39:30;;;;;;;2.97;2.40;;;19.00;95.60;;;;;;4978522;28;20033;-70
2022/10/18 15:42:01;;;;;;;2.70;1.93;;;18.90;95.30;;;;;;4978454;28;20050;-70
2022/10/18 15:45:31;;;;;;;2.85;2.03;;;18.80;94.80;;;;;;4978229;28;20070;-71
2022/10/18 15:48:08;;;;;;;3.10;1.95;;;18.70;95.20;;;;;;4962004;28;20427;-71
2022/10/18 15:51:06;;;;;;;3.30;2.47;;;18.60;95.20;;;;;;4977981;28;20034;-71
2022/10/18 15:53:59;;;;;;;2.75;2.13;;;18.50;95.10;;;;;;4978205;28;20035;-71
2022/10/18 16:00:06;;;;;;;2.03;1.88;;;18.10;96.30;;;;;;4978339;28;20358;-71
2022/10/18 16:02:41;;;;;;;1.75;1.50;;;17.90;96.60;;;;;;4978048;28;20031;-71
2022/10/18 16:08:43;;;;;;;2.17;1.52;;;17.50;97.40;;;;;;4991257;28;20113;-71
2022/10/18 16:11:25;;;;;;;2.88;2.20;;;17.30;98.00;;;;;;5017767;28;20037;-71
2022/10/18 16:14:00;;;;;;;2.63;2.38;;;17.20;98.00;;;;;;5050871;28;20303;-71
2022/10/18 16:19:56;;;;;;;1.60;1.50;;;16.90;98.00;;;;;;5038284;28;20033;-71
2022/10/18 16:22:31;;;;;;;2.28;1.85;;;16.90;98.00;;;;;;5053917;28;20124;-71
2022/10/18 16:28:22;;;;;;;2.55;2.20;;;16.80;98.00;;;;;;5038595;28;20116;-71
2022/10/18 16:31:02;;;;;;;2.83;2.40;;;16.70;98.00;;;;;;5038140;28;20100;-71
2022/10/18 16:33:37;;;;;;;1.33;1.02;;;16.70;98.00;;;;;;5038504;28;20285;-71
2022/10/18 16:36:17;;;;;;;2.30;2.10;;;16.70;98.00;;;;;;5053631;28;20029;-71
2022/10/18 16:38:44;;;;;;;1.13;1.02;;;16.70;98.00;;;;;;5037910;28;20429;-73
2022/10/18 16:41:22;;;;;;;4.28;2.47;;;16.70;98.00;;;;;;5036956;28;20033;-71
2022/10/18 16:43:57;;;;;;;2.13;1.75;;;16.70;98.00;;;;;;5037658;28;20333;-72
2022/10/18 16:49:58;;;;;;;3.25;2.40;;;16.60;98.00;;;;;;5037954;28;20420;-71
2022/10/18 16:52:33;;;;;;;1.77;1.30;;;16.50;98.00;;;;;;5037292;28;20366;-71
2022/10/18 16:58:21;;;;;;;2.65;1.40;;;16.40;98.00;;;;;;5037789;28;20232;-71
2022/10/18 17:00:57;;;;;;;3.22;1.60;;;16.40;98.00;;;;;;5037571;28;20052;-71
2022/10/18 17:03:32;;;;;;;2.88;2.65;;;16.30;98.00;;;;;;5037480;28;20026;-71
2022/10/18 17:09:19;;;;;;;2.28;2.08;;;16.30;98.00;;;;;;5037608;28;20032;-71
2022/10/18 17:11:54;;;;;;;2.10;1.90;;;16.30;98.00;;;;;;5037229;28;20022;-72
2022/10/18 17:17:42;;;;;;;2.40;2.20;;;16.20;98.00;;;;;;5037495;28;20024;-71
2022/10/18 17:20:32;;;;;;;2.47;2.28;;;16.10;98.00;;;;;;5052705;28;20022;-71
2022/10/18 17:23:08;;;;;;;2.28;1.83;;;16.10;98.00;;;;;;5037138;28;20024;-71
2022/10/18 17:25:43;;;;;;;2.28;2.08;;;16.10;98.00;;;;;;5052630;28;20030;-71
2022/10/18 17:28:13;;;;;;;1.95;1.85;;;16.10;98.00;;;;;;5037044;28;20026;-71
2022/10/18 17:30:51;;;;;;;7.97;3.55;;;16.10;98.00;;;;;;5035819;28;20021;-71
2022/10/18 17:33:26;;;;;;;2.78;2.47;;;16.10;98.00;;;;;;5037014;28;20397;-71
2022/10/18 17:39:15;;;;;;;1.70;1.60;;;16.20;98.00;;;;;;5037067;28;20028;-73
2022/10/18 17:41:50;;;;;;;2.28;1.85;;;16.20;98.00;;;;;;5035724;28;20029;-73
2022/10/18 17:44:26;;;;;;;3.05;1.92;;;16.10;98.00;;;;;;5035742;28;20056;-73
2022/10/18 17:46:51;;;;;;;;;;;16.20;98.00;;;;;;5037174;28;20021;-73
2022/10/18 17:49:26;;;;;;;1.27;1.17;;;16.10;98.00;;;;;;5036663;28;19932;-73
2022/10/18 17:52:52;;;;;;;3.05;2.10;;;16.10;98.00;;;;;;5036306;28;20037;-73
2022/10/18 17:59:55;;;;;;;2.85;2.63;;;16.00;98.00;;;;;;5036978;28;20341;-73
2022/10/18 18:03:19;;;;;;;2.25;1.88;;;16.10;98.00;;;;;;5036513;28;20025;-73